Flight Track Log - Related Links

Times and Time Zones

All times are in EDT time to prevent confusion due to time zone crossing. See the EGF3681 flight status page for this flight to view local times or setup timezone preferences in your user account.

Time Position Orientation Groundspeed Altitude Reporting Facility
EDT Latitude Longitude Course Direction KTS MPH feet Rate Location/Type
Mon 01:08:09 AM 41.8767 -87.8864 90° East 201 231 4,000  Level Chicago Center
Mon 01:09:09 AM 41.8744 -87.7925 92° East 255 293 5,800 1,800 Climbing Chicago Center
Mon 01:10:09 AM 41.8797 -87.6864 86° East 278 320 7,600 2,083 Climbing Chicago Center
Mon 01:11:10 AM 41.8825 -87.5769 88° East 289 333 10,000 2,132 Climbing Chicago Center
Mon 01:12:10 AM 41.8928 -87.4672 83° East 295 339 11,900 1,850 Climbing Chicago Center
Mon 01:13:00 AM 41.9667 -87.7759 90° East  Level FlightAware Approximate
Mon 01:13:10 AM 41.9086 -87.3531 79° East 307 353 13,700  Level Chicago Center
Mon 01:14:10 AM 41.8872 -87.2394 104° East 316 364 14,900 1,091 Climbing Chicago Center
Mon 01:15:11 AM 41.8369 -87.1289 121° Southeast 339 390 15,900 992 Climbing Chicago Center
Mon 01:16:11 AM 41.7783 -87.0169 125° Southeast 356 410 16,900 950 Climbing Chicago Center
Mon 01:17:11 AM 41.7089 -86.9122 132° Southeast 370 426 17,800 992 Climbing Chicago Center
Mon 01:18:12 AM 41.6369 -86.8019 131° Southeast 385 443 18,900 1,240 Climbing Chicago Center
Mon 01:19:12 AM 41.5650 -86.6897 131° Southeast 386 444 20,300 1,250 Climbing Chicago Center
Mon 01:20:12 AM 41.4942 -86.5811 131° Southeast 388 447 21,400 1,100 Climbing Chicago Center
Mon 01:21:12 AM 41.4219 -86.4711 131° Southeast 393 452 22,500 793 Climbing Chicago Center
Mon 01:22:13 AM 41.3511 -86.3597 130° Southeast 395 455 23,000 248 Climbing Chicago Center
Mon 01:23:13 AM 41.2733 -86.2436 132° Southeast 411 473 23,000  Level Chicago Center
Mon 01:24:13 AM 41.1939 -86.1211 131° Southeast 433 498 23,000  Level Chicago Center
Mon 01:25:13 AM 41.1122 -85.9989 132° Southeast 444 511 23,000  Level Chicago Center
Mon 01:26:13 AM 41.0314 -85.8750 131° Southeast 447 514 23,000  Level Chicago Center
Mon 01:27:14 AM 40.9514 -85.7547 131° Southeast 440 506 23,000  Level Chicago Center
Mon 01:28:14 AM 40.8714 -85.6364 132° Southeast 434 499 23,000  Level Chicago Center
Mon 01:29:14 AM 40.7919 -85.5175 131° Southeast 434 499 23,000 -500 Level Chicago Center
Mon 01:30:14 AM 40.7128 -85.3989 131° Southeast 434 499 22,000 -1,488 Descending Chicago Center
Mon 01:31:15 AM 40.6244 -85.2658 131° Southeast 431 496 20,000 -1,983 Descending Chicago Center
Mon 01:32:15 AM 40.5472 -85.1553 133° Southeast 414 476 18,000 -2,136 Descending Chicago Center
Mon 01:33:13 AM 40.4731 -85.0456 132° Southeast 400 460 15,800 -2,390 Descending Indianapolis Center
Mon 01:34:13 AM 40.4003 -84.9386 132° Southeast 394 453 13,300 -1,900 Descending Indianapolis Center
Mon 01:35:13 AM 40.3478 -84.8364 124° Southeast 375 432 12,000 -1,100 Descending Indianapolis Center
Mon 01:36:13 AM 40.2892 -84.7256 125° Southeast 369 425 11,100 -800 Descending Indianapolis Center
Mon 01:37:13 AM 40.2289 -84.6183 126° Southeast 365 420 10,400 -500 Descending Indianapolis Center
Mon 01:38:13 AM 40.1753 -84.5228 126° Southeast 333 383 10,100 -1,150 Descending Indianapolis Center
Mon 01:39:13 AM 40.1306 -84.4383 125° Southeast 286 329 8,100 -1,934 Descending Indianapolis Center
Mon 01:40:14 AM 40.0856 -84.3564 126° Southeast 278 320 6,200 -1,869 Descending Indianapolis Center

Login

Don't have an account? Register now (free) for customized features, flight alerts, and more!